Terminal Aerodrome Forecast
Issued by NWS

Home | Current Version | Previous Version | Text Only | Print | Product List | Glossary On
Versions: 1 2 3 4 5 6 7 8 9 10 11 12 13 14 15 16 17 18 19
139
FTUS43 KBIS 200202 AAA
TAFMOT
TAF AMD
KMOT 200202Z 2002/2024 VRB05KT 4SM BR BKN100
     FM200300 22006KT 2SM BR BKN050
     FM200600 28007KT 1/2SM FG OVC008
     FM201500 26009KT P6SM BKN045
     FM201600 26010KT P6SM SCT080=

USA.gov is the U.S. government's official web portal to all federal, state and local government web resources and services.